createdAt,value
2022-08-17T00:00:43.429Z,77.1
2022-08-17T00:02:30.348Z,77.1
2022-08-17T00:04:30.555Z,77.1
2022-08-17T00:06:30.962Z,77.1
2022-08-17T00:08:33.532Z,77.1
2022-08-17T00:10:32.525Z,77.1
2022-08-17T00:12:42.787Z,77.1
2022-08-17T00:14:33.091Z,76.4
2022-08-17T00:16:55.893Z,76
2022-08-17T00:18:58.152Z,76
2022-08-17T00:20:35.049Z,76
2022-08-17T00:22:36.385Z,75.4
2022-08-17T00:24:34.217Z,75.2
2022-08-17T00:26:44.587Z,75.2
2022-08-17T00:28:35.620Z,74.9
2022-08-17T00:30:53.100Z,74.9
2022-08-17T00:33:12.121Z,74.9
2022-08-17T00:34:35.954Z,75
2022-08-17T00:36:36.305Z,75
2022-08-17T00:38:36.839Z,75
2022-08-17T00:40:40.685Z,75
2022-08-17T00:42:37.862Z,75
2022-08-17T00:44:37.752Z,75.4
2022-08-17T00:46:41.495Z,75.5
2022-08-17T00:48:39.530Z,75.5
2022-08-17T00:50:49.186Z,76.2
2022-08-17T00:52:47.025Z,76.2
2022-08-17T00:54:44.242Z,76.9
2022-08-17T00:56:43.860Z,77.6
2022-08-17T00:58:40.896Z,78.5
2022-08-17T01:00:44.388Z,78.5
2022-08-17T01:02:43.786Z,79.1
2022-08-17T01:04:43.654Z,80.1
2022-08-17T01:06:43.083Z,80.1
2022-08-17T01:08:42.479Z,80.1
2022-08-17T01:10:57.273Z,80.1
2022-08-17T01:12:42.998Z,80.8
2022-08-17T01:14:43.113Z,80.9
2022-08-17T01:16:43.430Z,80.9
2022-08-17T01:18:47.071Z,81.5
2022-08-17T01:20:48.614Z,81.5
2022-08-17T01:22:44.495Z,82.2
2022-08-17T01:24:49.720Z,82.1
2022-08-17T01:26:46.523Z,82.1
2022-08-17T01:28:55.110Z,82.1
2022-08-17T01:30:58.580Z,82.1
2022-08-17T01:32:46.415Z,82.8
2022-08-17T01:34:50.600Z,83.4
2022-08-17T01:36:49.139Z,83.4
2022-08-17T01:38:47.278Z,83.4
2022-08-17T01:40:57.498Z,84.1
2022-08-17T01:42:54.261Z,84.1
2022-08-17T01:44:52.335Z,84.3
2022-08-17T01:46:48.826Z,84.6
2022-08-17T01:48:49.507Z,84.6
2022-08-17T01:50:51.246Z,83.9
2022-08-17T01:52:54.939Z,83.9
2022-08-17T01:54:51.737Z,83.8
2022-08-17T01:56:51.398Z,83.8
2022-08-17T01:58:51.732Z,83.8
2022-08-17T02:01:00.795Z,83.8
2022-08-17T02:02:51.399Z,83.8
2022-08-17T02:04:51.467Z,84.2
2022-08-17T02:06:53.661Z,84.2
2022-08-17T02:09:02.302Z,84.2
2022-08-17T02:10:52.506Z,84.2
2022-08-17T02:12:53.048Z,83.3
2022-08-17T02:14:53.248Z,83.3
2022-08-17T02:16:53.769Z,83.3
2022-08-17T02:18:53.667Z,83.3
2022-08-17T02:20:54.147Z,83.3
2022-08-17T02:22:55.124Z,83.3
2022-08-17T02:24:59.360Z,82.9
2022-08-17T02:26:55.030Z,82.9
2022-08-17T02:28:55.340Z,82.9
2022-08-17T02:31:00.970Z,82.9
2022-08-17T02:32:56.134Z,82.9
2022-08-17T02:34:57.040Z,83.4
2022-08-17T02:36:56.635Z,82.4
2022-08-17T02:38:57.080Z,82.4
2022-08-17T02:40:58.302Z,82.4
2022-08-17T02:42:58.349Z,82.4
2022-08-17T02:44:57.983Z,82.9
2022-08-17T02:46:58.385Z,82.9
2022-08-17T02:48:59.176Z,82.9
2022-08-17T02:50:59.576Z,82.9
2022-08-17T02:53:02.416Z,82.9
2022-08-17T02:54:59.789Z,83.3
2022-08-17T02:57:00.049Z,83.3
2022-08-17T02:59:00.391Z,82.4
2022-08-17T03:01:00.713Z,82.4
2022-08-17T03:03:02.987Z,81.9
2022-08-17T03:05:01.356Z,81.3
2022-08-17T03:07:01.762Z,81.3
2022-08-17T03:09:02.193Z,80.6
2022-08-17T03:11:02.471Z,79.8
2022-08-17T03:13:02.819Z,79.2
2022-08-17T03:15:05.070Z,79.2
2022-08-17T03:17:03.491Z,79.2
2022-08-17T03:19:03.734Z,79.8
2022-08-17T03:21:04.510Z,79.8
2022-08-17T03:23:04.823Z,79.2
2022-08-17T03:25:10.615Z,78.6
2022-08-17T03:27:05.071Z,77.5
2022-08-17T03:29:05.366Z,76.4
2022-08-17T03:31:06.731Z,76.4
2022-08-17T03:33:08.169Z,76.4
2022-08-17T03:35:07.368Z,75.9
2022-08-17T03:37:07.220Z,75.9
2022-08-17T03:39:07.783Z,75.2
2022-08-17T03:41:07.757Z,74.8
2022-08-17T03:43:08.708Z,74.1
2022-08-17T03:45:15.103Z,74.1
2022-08-17T03:47:08.576Z,74.1
2022-08-17T03:49:09.288Z,73.5
2022-08-17T03:51:15.485Z,73.5
2022-08-17T03:53:15.604Z,72.5
2022-08-17T03:55:10.057Z,72.5
2022-08-17T03:57:11.162Z,72.5
2022-08-17T03:59:21.105Z,71.8
2022-08-17T04:01:11.677Z,71.8
2022-08-17T04:03:12.458Z,71.8
2022-08-17T04:05:12.319Z,71.8
2022-08-17T04:07:12.815Z,71.8
2022-08-17T04:09:13.791Z,70.9
2022-08-17T04:11:13.823Z,70.4
2022-08-17T04:13:14.359Z,70.5
2022-08-17T04:15:16.543Z,70.5
2022-08-17T04:17:15.667Z,70.5
2022-08-17T04:19:15.909Z,70.5
2022-08-17T04:21:16.808Z,70.5
2022-08-17T04:23:18.368Z,70.3
2022-08-17T04:25:19.675Z,69.1
2022-08-17T04:27:18.130Z,69.1
2022-08-17T04:29:19.065Z,68.5
2022-08-17T04:31:19.509Z,68.5
2022-08-17T04:33:22.147Z,68.1
2022-08-17T04:35:23.280Z,68.1
2022-08-17T04:37:21.038Z,67.5
2022-08-17T04:39:21.585Z,66.5
2022-08-17T04:41:22.336Z,66.5
2022-08-17T04:43:25.722Z,66.2
2022-08-17T04:45:23.334Z,66.2
2022-08-17T04:47:23.854Z,66.2
2022-08-17T04:49:24.527Z,65.5
2022-08-17T04:51:28.441Z,65.5
2022-08-17T04:53:26.771Z,66.1
2022-08-17T04:55:26.334Z,65.2
2022-08-17T04:57:26.870Z,64.5
2022-08-17T04:59:27.430Z,64.5
2022-08-17T05:01:30.606Z,65.9
2022-08-17T05:03:29.478Z,64.6
2022-08-17T05:05:31.601Z,64.6
2022-08-17T05:07:31.682Z,63.2
2022-08-17T05:09:30.489Z,63.8
2022-08-17T05:11:31.083Z,63.8
2022-08-17T05:13:31.673Z,63.3
2022-08-17T05:15:36.382Z,63.3
2022-08-17T05:17:33.091Z,62.7
2022-08-17T05:19:33.550Z,60.9
2022-08-17T05:21:34.066Z,60.9
2022-08-17T05:23:42.864Z,60.3
2022-08-17T05:25:37.999Z,59.8
2022-08-17T05:27:36.047Z,59.8
2022-08-17T05:29:36.574Z,60.3
2022-08-17T05:31:37.264Z,60.3
2022-08-17T05:33:44.417Z,58.7
2022-08-17T05:35:41.402Z,58.7
2022-08-17T05:37:39.309Z,59.5
2022-08-17T05:39:39.939Z,59.5
2022-08-17T05:41:40.746Z,59
2022-08-17T05:43:41.856Z,59.5
2022-08-17T05:45:55.678Z,60.2
2022-08-17T05:47:44.898Z,59.7
2022-08-17T05:49:43.219Z,59.7
2022-08-17T05:52:01.204Z,60.3
2022-08-17T05:53:52.623Z,59.5
2022-08-17T05:55:55.247Z,59.5
2022-08-17T05:57:58.642Z,59.5
2022-08-17T05:59:58.094Z,59.5
2022-08-17T06:01:55.328Z,58.7
2022-08-17T06:03:56.852Z,58.7
2022-08-17T06:06:03.311Z,58.7
2022-08-17T06:07:56.739Z,58.1
2022-08-17T06:09:56.841Z,57.5
2022-08-17T06:11:58.723Z,57.5
2022-08-17T06:14:08.999Z,57.7
2022-08-17T06:16:00.689Z,58.1
2022-08-17T06:17:55.776Z,57.4
2022-08-17T06:19:57.409Z,58
2022-08-17T06:21:55.062Z,58
2022-08-17T06:24:01.187Z,58.4
2022-08-17T06:26:01.283Z,57.2
2022-08-17T06:28:01.013Z,57.9
2022-08-17T06:30:01.718Z,56.6
2022-08-17T06:31:57.153Z,55.9
2022-08-17T06:34:00.617Z,55.3
2022-08-17T06:36:09.830Z,55.3
2022-08-17T06:38:08.307Z,54.7
2022-08-17T06:40:18.828Z,53.9
2022-08-17T06:42:09.990Z,54
2022-08-17T06:44:12.009Z,54.5
2022-08-17T06:46:07.523Z,55
2022-08-17T06:48:10.788Z,54.3
2022-08-17T06:50:10.560Z,55
2022-08-17T06:52:11.620Z,54.1
2022-08-17T06:54:10.477Z,51.3
2022-08-17T06:56:08.115Z,51.3
2022-08-17T06:58:16.438Z,52.5
2022-08-17T07:00:12.892Z,51.8
2022-08-17T07:02:14.642Z,52.6
2022-08-17T07:04:12.938Z,52.6
2022-08-17T07:06:14.687Z,52.6
2022-08-17T07:08:17.898Z,53.4
2022-08-17T07:10:11.477Z,51.5
2022-08-17T07:12:16.580Z,51.7
2022-08-17T07:14:26.700Z,51.4
2022-08-17T07:16:19.287Z,50.2
2022-08-17T07:18:12.816Z,50.7
2022-08-17T07:20:17.619Z,50.1
2022-08-17T07:22:22.140Z,49.5
2022-08-17T07:24:30.030Z,50.3
2022-08-17T07:26:15.452Z,49.2
2022-08-17T07:28:21.683Z,50
2022-08-17T07:30:20.562Z,50
2022-08-17T07:32:22.255Z,50.1
2022-08-17T07:34:18.000Z,50.1
2022-08-17T07:36:29.168Z,47.3
2022-08-17T07:38:25.530Z,48.1
2022-08-17T07:40:24.616Z,48.7
2022-08-17T07:42:21.237Z,48.5
2022-08-17T07:44:21.149Z,47.8
2022-08-17T07:46:23.817Z,47.8
2022-08-17T07:48:25.204Z,46.3
2022-08-17T07:50:25.984Z,46.2
2022-08-17T07:52:51.049Z,46.7
2022-08-17T07:54:31.840Z,48.1
2022-08-17T07:56:34.429Z,47.7
2022-08-17T07:58:25.228Z,45.5
2022-08-17T08:00:32.223Z,46.9
2022-08-17T08:02:37.137Z,46.5
2022-08-17T08:04:59.043Z,47.6
2022-08-17T08:06:27.617Z,45.6
2022-08-17T08:08:32.349Z,45.7
2022-08-17T08:10:32.889Z,45.7
2022-08-17T08:12:33.684Z,45.9
2022-08-17T08:14:31.684Z,45.3
2022-08-17T08:16:30.652Z,45.3
2022-08-17T08:18:38.778Z,45
2022-08-17T08:20:53.386Z,44.8
2022-08-17T08:22:42.550Z,43.8
2022-08-17T08:24:49.924Z,44
2022-08-17T08:26:40.085Z,43.8
2022-08-17T08:28:41.611Z,42.8
2022-08-17T08:30:43.610Z,42.8
2022-08-17T08:32:51.232Z,42.8
2022-08-17T08:34:58.564Z,41.7
2022-08-17T08:36:56.962Z,41.8
2022-08-17T08:38:45.972Z,41.8
2022-08-17T08:40:51.424Z,41.8
2022-08-17T08:42:48.559Z,43.7
2022-08-17T08:44:59.770Z,44.1
2022-08-17T08:46:48.476Z,42.6
2022-08-17T08:49:12.416Z,41.9
2022-08-17T08:50:48.069Z,41.9
2022-08-17T08:52:56.243Z,41.4
2022-08-17T08:54:50.762Z,41.4
2022-08-17T08:57:19.187Z,41.4
2022-08-17T08:58:49.716Z,41.4
2022-08-17T09:00:47.901Z,42.2
2022-08-17T09:03:11.332Z,42.6
2022-08-17T09:05:13.761Z,41.1
2022-08-17T09:06:55.149Z,41.1
2022-08-17T09:08:59.306Z,39.6
2022-08-17T09:10:56.466Z,40.6
2022-08-17T09:12:58.106Z,41.5
2022-08-17T09:14:54.598Z,41.5
2022-08-17T09:16:59.869Z,41.1
2022-08-17T09:19:00.772Z,41.6
2022-08-17T09:20:55.926Z,42.5
2022-08-17T09:22:55.468Z,41.3
2022-08-17T09:24:57.422Z,40.8
2022-08-17T09:26:57.955Z,40.2
2022-08-17T09:28:57.002Z,41.2
2022-08-17T09:30:57.775Z,41.9
2022-08-17T09:32:57.947Z,41.3
2022-08-17T09:35:11.225Z,40.4
2022-08-17T09:37:10.052Z,40.4
2022-08-17T09:38:59.692Z,40.4
2022-08-17T09:41:05.559Z,41.3
2022-08-17T09:43:03.439Z,41.1
2022-08-17T09:45:09.031Z,41.1
2022-08-17T09:47:04.810Z,41.6
2022-08-17T09:49:06.870Z,41.6
2022-08-17T09:51:06.762Z,42.2
2022-08-17T09:53:00.711Z,42.7
2022-08-17T09:55:00.813Z,42.7
2022-08-17T09:57:29.190Z,41.8
2022-08-17T09:59:25.543Z,41.8
2022-08-17T10:01:10.116Z,41.3
2022-08-17T10:03:21.423Z,40.8
2022-08-17T10:05:09.726Z,41.2
2022-08-17T10:07:11.433Z,41.2
2022-08-17T10:09:13.532Z,41.2
2022-08-17T10:11:17.188Z,41.3
2022-08-17T10:13:13.564Z,41.3
2022-08-17T10:15:17.487Z,40.7
2022-08-17T10:17:18.745Z,40.7
2022-08-17T10:19:14.747Z,40.7
2022-08-17T10:21:11.624Z,40.7
2022-08-17T10:23:15.079Z,41.5
2022-08-17T10:25:22.881Z,41
2022-08-17T10:27:17.655Z,41
2022-08-17T10:29:17.030Z,41
2022-08-17T10:31:36.292Z,41
2022-08-17T10:33:18.679Z,41
2022-08-17T10:35:28.123Z,41
2022-08-17T10:37:32.890Z,41
2022-08-17T10:39:23.960Z,41
2022-08-17T10:41:22.180Z,41.9
2022-08-17T10:43:27.013Z,41
2022-08-17T10:45:21.099Z,41
2022-08-17T10:47:18.185Z,41
2022-08-17T10:49:27.526Z,41.7
2022-08-17T10:51:34.698Z,42.2
2022-08-17T10:53:47.142Z,42.2
2022-08-17T10:55:18.900Z,42.8
2022-08-17T10:57:36.003Z,43.5
2022-08-17T10:59:48.806Z,42.7
2022-08-17T11:01:38.623Z,42.7
2022-08-17T11:03:22.893Z,42.7
2022-08-17T11:05:42.911Z,42.6
2022-08-17T11:07:36.726Z,42.6
2022-08-17T11:09:33.492Z,43.6
2022-08-17T11:11:44.211Z,44.3
2022-08-17T11:13:35.290Z,44.2
2022-08-17T11:15:41.375Z,44.2
2022-08-17T11:17:42.181Z,43.4
2022-08-17T11:19:52.293Z,42.6
2022-08-17T11:21:42.594Z,41.8
2022-08-17T11:23:44.693Z,41.6
2022-08-17T11:25:35.945Z,42.3
2022-08-17T11:27:33.271Z,41.5
2022-08-17T11:29:49.390Z,42.1
2022-08-17T11:31:38.295Z,42.1
2022-08-17T11:33:58.669Z,42
2022-08-17T11:35:38.123Z,42
2022-08-17T11:37:40.810Z,41.3
2022-08-17T11:39:49.270Z,41.3
2022-08-17T11:41:43.179Z,42
2022-08-17T11:43:57.891Z,41
2022-08-17T11:45:50.880Z,41
2022-08-17T11:47:40.225Z,40.4
2022-08-17T11:49:52.212Z,40.4
2022-08-17T11:51:54.320Z,41.3
2022-08-17T11:54:21.515Z,42.2
2022-08-17T11:56:02.001Z,42.2
2022-08-17T11:57:54.181Z,43
2022-08-17T11:59:53.277Z,43
2022-08-17T12:01:53.349Z,42.4
2022-08-17T12:03:55.360Z,41.9
2022-08-17T12:05:38.811Z,41.7
2022-08-17T12:07:44.381Z,42.3
2022-08-17T12:09:44.126Z,42.3
2022-08-17T12:12:11.067Z,42.3
2022-08-17T12:13:45.826Z,41.8
2022-08-17T12:15:44.661Z,41.4
2022-08-17T12:17:49.964Z,41.3
2022-08-17T12:19:42.735Z,41.3
2022-08-17T12:21:50.965Z,41.3
2022-08-17T12:23:54.112Z,41.2
2022-08-17T12:25:50.628Z,41.2
2022-08-17T12:28:05.195Z,41.9
2022-08-17T12:29:45.669Z,42.6
2022-08-17T12:31:48.280Z,42
2022-08-17T12:33:47.943Z,42
2022-08-17T12:35:47.242Z,42.6
2022-08-17T12:37:49.545Z,42.6
2022-08-17T12:39:52.706Z,42
2022-08-17T12:41:50.952Z,42
2022-08-17T12:43:56.400Z,42.5
2022-08-17T12:45:55.895Z,42.5
2022-08-17T12:48:00.299Z,42.5
2022-08-17T12:49:52.416Z,42.5
2022-08-17T12:51:58.926Z,42.5
2022-08-17T12:53:54.944Z,42.3
2022-08-17T12:55:54.115Z,42.3
2022-08-17T12:57:55.188Z,41.9
2022-08-17T12:59:57.533Z,41.9
2022-08-17T13:01:54.435Z,41.9
2022-08-17T13:03:55.903Z,42.1
2022-08-17T13:05:58.292Z,42.1
2022-08-17T13:07:59.007Z,42.1
2022-08-17T13:09:56.606Z,41.9
2022-08-17T13:11:58.468Z,41.9
2022-08-17T13:14:09.134Z,41.7
2022-08-17T13:16:01.126Z,41.7
2022-08-17T13:18:03.969Z,41.7
2022-08-17T13:19:59.774Z,41.7
2022-08-17T13:22:01.305Z,42.4
2022-08-17T13:24:02.717Z,41.7
2022-08-17T13:26:05.423Z,41.7
2022-08-17T13:28:01.706Z,41.7
2022-08-17T13:30:09.805Z,41.7
2022-08-17T13:32:16.632Z,41.7
2022-08-17T13:34:19.382Z,41.9
2022-08-17T13:36:07.039Z,41.9
2022-08-17T13:38:06.897Z,41.9
2022-08-17T13:40:34.471Z,41.1
2022-08-17T13:42:28.958Z,41.1
2022-08-17T13:44:35.670Z,40.7
2022-08-17T13:46:09.756Z,40.7
2022-08-17T13:48:11.957Z,40.7
2022-08-17T13:50:19.496Z,40.7
2022-08-17T13:52:28.534Z,40.7
2022-08-17T13:54:23.439Z,41
2022-08-17T13:56:37.720Z,42.1
2022-08-17T13:58:10.181Z,42.1
2022-08-17T14:00:17.515Z,42.8
2022-08-17T14:02:12.575Z,42.8
2022-08-17T14:04:13.792Z,43.3
2022-08-17T14:06:12.374Z,43.3
2022-08-17T14:08:14.843Z,43.8
2022-08-17T14:10:15.951Z,43.8
2022-08-17T14:12:17.494Z,43.8
2022-08-17T14:14:16.079Z,44.2
2022-08-17T14:16:15.293Z,44.2
2022-08-17T14:18:15.824Z,44.2
2022-08-17T14:20:20.602Z,44.4
2022-08-17T14:22:20.322Z,44.4
2022-08-17T14:24:22.943Z,44.2
2022-08-17T14:26:17.998Z,44.2
2022-08-17T14:28:18.627Z,44.2
2022-08-17T14:30:21.168Z,44.2
2022-08-17T14:32:22.066Z,44.2
2022-08-17T14:34:20.876Z,44.5
2022-08-17T14:36:20.957Z,44.5
2022-08-17T14:38:21.390Z,45
2022-08-17T14:40:23.632Z,45
2022-08-17T14:42:23.470Z,44.1
2022-08-17T14:44:23.286Z,44.3
2022-08-17T14:46:23.595Z,44.3
2022-08-17T14:48:24.385Z,44.3
2022-08-17T14:50:24.725Z,44.3
2022-08-17T14:52:25.267Z,44.3
2022-08-17T14:54:33.189Z,44.6
2022-08-17T14:56:26.626Z,44.6
2022-08-17T14:58:26.939Z,44.6
2022-08-17T15:00:27.441Z,44.6
2022-08-17T15:02:30.074Z,44.6
2022-08-17T15:04:28.620Z,45
2022-08-17T15:06:29.142Z,45.3
2022-08-17T15:08:30.250Z,45.3
2022-08-17T15:10:31.083Z,45.3
2022-08-17T15:12:34.616Z,45.8
2022-08-17T15:14:31.330Z,45.9
2022-08-17T15:16:31.901Z,45.9
2022-08-17T15:18:32.321Z,45.9
2022-08-17T15:20:32.860Z,46.4
2022-08-17T15:22:33.368Z,46.4
2022-08-17T15:24:33.992Z,46.4
2022-08-17T15:26:34.704Z,46.4
2022-08-17T15:28:35.173Z,46.4
2022-08-17T15:30:35.565Z,47
2022-08-17T15:32:39.306Z,47
2022-08-17T15:34:36.663Z,47.2
2022-08-17T15:36:37.243Z,47.2
2022-08-17T15:38:37.721Z,47.6
2022-08-17T15:40:40.697Z,47.6
2022-08-17T15:42:38.809Z,47.6
2022-08-17T15:44:40.030Z,47.8
2022-08-17T15:46:39.846Z,48.2
2022-08-17T15:48:42.723Z,48.2
2022-08-17T15:50:41.681Z,48.2
2022-08-17T15:52:41.496Z,48.2
2022-08-17T15:54:42.198Z,48.7
2022-08-17T15:56:42.575Z,48.7
2022-08-17T15:58:45.106Z,48.7
2022-08-17T16:00:53.095Z,48.7
2022-08-17T16:03:47.108Z,48.7
2022-08-17T16:04:44.750Z,48.8
2022-08-17T16:06:45.177Z,48.8
2022-08-17T16:08:45.812Z,49.4
2022-08-17T16:10:46.396Z,49.4
2022-08-17T16:12:48.602Z,50
2022-08-17T16:14:49.013Z,50.6
2022-08-17T16:16:47.785Z,50.6
2022-08-17T16:18:48.301Z,51.1
2022-08-17T16:20:49.137Z,51.1
2022-08-17T16:22:50.318Z,51.1
2022-08-17T16:24:57.087Z,51.8
2022-08-17T16:26:50.606Z,51.8
2022-08-17T16:28:51.596Z,51.8
2022-08-17T16:30:51.461Z,52.4
2022-08-17T16:32:54.955Z,52.4
2022-08-17T16:34:52.682Z,52.3
2022-08-17T16:36:56.043Z,52.3
2022-08-17T16:38:53.422Z,52.3
2022-08-17T16:40:53.948Z,52.3
2022-08-17T16:42:55.213Z,52.3
2022-08-17T16:45:03.524Z,53
2022-08-17T16:46:55.960Z,53.7
2022-08-17T16:48:56.290Z,53.7
2022-08-17T16:51:03.519Z,53.7
2022-08-17T16:53:04.241Z,53.7
2022-08-17T16:54:59.834Z,54.2
2022-08-17T16:56:58.049Z,54.2
2022-08-17T16:58:58.481Z,54.2
2022-08-17T17:00:59.066Z,54.2
2022-08-17T17:03:07.667Z,54.2
2022-08-17T17:05:06.616Z,54.2
2022-08-17T17:07:11.962Z,54.2
2022-08-17T17:09:05.189Z,54.2
2022-08-17T17:11:11.112Z,54.2
2022-08-17T17:13:04.704Z,54.2
2022-08-17T17:15:02.768Z,54.5
2022-08-17T17:17:05.710Z,54.7
2022-08-17T17:19:11.172Z,54.7
2022-08-17T17:21:08.123Z,54.7
2022-08-17T17:23:08.676Z,54.7
2022-08-17T17:25:11.578Z,54.8
2022-08-17T17:27:19.266Z,54.8
2022-08-17T17:29:18.699Z,54.8
2022-08-17T17:31:12.270Z,54.8
2022-08-17T17:33:13.733Z,54.8
2022-08-17T17:35:20.846Z,54.8
2022-08-17T17:37:14.611Z,54.8
2022-08-17T17:39:13.096Z,55.2
2022-08-17T17:41:16.329Z,55.2
2022-08-17T17:43:36.878Z,55.2
2022-08-17T17:45:16.358Z,55.8
2022-08-17T17:47:11.945Z,55.8
2022-08-17T17:49:11.097Z,55.8
2022-08-17T17:52:06.548Z,55.8
2022-08-17T17:53:18.253Z,55.8
2022-08-17T17:55:22.850Z,55.9
2022-08-17T17:57:21.687Z,55.9
2022-08-17T17:59:23.554Z,55.9
2022-08-17T18:01:27.802Z,55.9
2022-08-17T18:03:28.791Z,55.9
2022-08-17T18:05:26.889Z,56.2
2022-08-17T18:07:27.744Z,56.2
2022-08-17T18:09:28.350Z,56.2
2022-08-17T18:11:33.085Z,56.2
2022-08-17T18:13:26.665Z,56.4
2022-08-17T18:15:24.389Z,56.4
2022-08-17T18:17:17.457Z,56.4
2022-08-17T18:19:18.768Z,57.1
2022-08-17T18:21:21.197Z,57.1
2022-08-17T18:23:19.974Z,57.8
2022-08-17T18:25:38.127Z,58.4
2022-08-17T18:27:23.587Z,58.4
2022-08-17T18:29:30.832Z,58.4
2022-08-17T18:31:21.335Z,58.4
2022-08-17T18:33:23.568Z,58.4
2022-08-17T18:35:28.066Z,58.6
2022-08-17T18:37:32.610Z,58.6
2022-08-17T18:39:26.811Z,58.6
2022-08-17T18:41:24.596Z,58.6
2022-08-17T18:43:26.831Z,58.6
2022-08-17T18:45:32.023Z,58.5
2022-08-17T18:47:25.878Z,58.5
2022-08-17T18:49:27.336Z,58.5
2022-08-17T18:51:41.042Z,58.5
2022-08-17T18:53:33.474Z,58.8
2022-08-17T18:55:27.191Z,58.8
2022-08-17T18:57:30.934Z,59
2022-08-17T18:59:33.555Z,59
2022-08-17T19:01:42.053Z,59
2022-08-17T19:03:27.306Z,59
2022-08-17T19:05:33.997Z,59.2
2022-08-17T19:07:31.352Z,59.6
2022-08-17T19:09:33.268Z,59.6
2022-08-17T19:11:31.946Z,59.6
2022-08-17T19:13:33.338Z,60.2
2022-08-17T19:15:35.848Z,60.2
2022-08-17T19:17:38.981Z,60.2
2022-08-17T19:19:36.429Z,60.7
2022-08-17T19:21:37.172Z,60.7
2022-08-17T19:23:39.367Z,61.2
2022-08-17T19:25:37.617Z,61.3
2022-08-17T19:27:41.823Z,61.3
2022-08-17T19:29:41.463Z,61.3
2022-08-17T19:31:34.107Z,61.3
2022-08-17T19:33:33.952Z,61.9
2022-08-17T19:35:45.111Z,61.9
2022-08-17T19:37:41.491Z,61.9
2022-08-17T19:39:42.849Z,61.9
2022-08-17T19:41:43.159Z,62.4
2022-08-17T19:43:56.521Z,62.9
2022-08-17T19:45:43.075Z,62.9
2022-08-17T19:48:04.987Z,62.9
2022-08-17T19:49:48.819Z,62.9
2022-08-17T19:51:46.172Z,63.5
2022-08-17T19:54:05.016Z,63.7
2022-08-17T19:55:50.092Z,63.7
2022-08-17T19:57:46.589Z,63.7
2022-08-17T19:59:49.335Z,64.1
2022-08-17T20:01:46.589Z,64.1
2022-08-17T20:03:49.868Z,64.5
2022-08-17T20:06:09.212Z,64.5
2022-08-17T20:07:49.300Z,64.5
2022-08-17T20:09:46.429Z,64.6
2022-08-17T20:11:46.854Z,64.6
2022-08-17T20:13:46.501Z,65
2022-08-17T20:15:42.528Z,65.1
2022-08-17T20:17:46.095Z,65.1
2022-08-17T20:19:49.933Z,65.1
2022-08-17T20:21:50.974Z,65.1
2022-08-17T20:23:51.550Z,65.4
2022-08-17T20:25:46.845Z,65.4
2022-08-17T20:27:52.884Z,65.4
2022-08-17T20:30:01.239Z,65.4
2022-08-17T20:31:49.764Z,65.7
2022-08-17T20:33:46.188Z,65.7
2022-08-17T20:36:03.069Z,65.7
2022-08-17T20:37:54.625Z,65.7
2022-08-17T20:40:18.739Z,65.7
2022-08-17T20:42:03.962Z,65.7
2022-08-17T20:44:01.035Z,65.7
2022-08-17T20:46:02.311Z,65.7
2022-08-17T20:48:18.482Z,65.7
2022-08-17T20:49:53.856Z,66.2
2022-08-17T20:52:01.613Z,66.2
2022-08-17T20:54:16.868Z,66.3
2022-08-17T20:55:53.821Z,66.3
2022-08-17T20:57:51.152Z,66.3
2022-08-17T20:59:55.568Z,66.3
2022-08-17T21:02:17.689Z,66.3
2022-08-17T21:03:52.437Z,66.7
2022-08-17T21:05:57.359Z,66.8
2022-08-17T21:07:56.891Z,66.8
2022-08-17T21:10:09.169Z,66.8
2022-08-17T21:12:03.937Z,66.8
2022-08-17T21:14:05.908Z,66.9
2022-08-17T21:15:59.856Z,66.9
2022-08-17T21:18:04.267Z,66.9
2022-08-17T21:20:11.526Z,66.9
2022-08-17T21:22:13.198Z,66.9
2022-08-17T21:24:13.159Z,67
2022-08-17T21:26:11.391Z,67
2022-08-17T21:28:04.830Z,67
2022-08-17T21:30:22.190Z,67
2022-08-17T21:32:18.585Z,67.4
2022-08-17T21:34:27.403Z,67.6
2022-08-17T21:36:20.280Z,67.6
2022-08-17T21:38:02.713Z,68
2022-08-17T21:40:16.128Z,68
2022-08-17T21:41:59.887Z,68
2022-08-17T21:44:10.180Z,68.1
2022-08-17T21:46:03.714Z,68.6
2022-08-17T21:48:16.866Z,68.6
2022-08-17T21:50:16.905Z,69.2
2022-08-17T21:52:01.770Z,69.2
2022-08-17T21:54:11.903Z,69.3
2022-08-17T21:56:02.809Z,69.3
2022-08-17T21:58:13.456Z,69.3
2022-08-17T22:00:06.854Z,69.3
2022-08-17T22:02:07.880Z,69.3
2022-08-17T22:04:17.049Z,69.8
2022-08-17T22:06:19.298Z,69.8
2022-08-17T22:08:16.464Z,69.8
2022-08-17T22:10:21.738Z,69.8
2022-08-17T22:12:09.117Z,69.8
2022-08-17T22:14:16.013Z,69.6
2022-08-17T22:16:27.999Z,69.6
2022-08-17T22:18:09.131Z,69.6
2022-08-17T22:20:10.697Z,69.6
2022-08-17T22:22:09.775Z,69.6
2022-08-17T22:24:16.642Z,69.7
2022-08-17T22:26:12.803Z,69.7
2022-08-17T22:28:10.520Z,69.7
2022-08-17T22:30:19.092Z,69.7
2022-08-17T22:32:09.734Z,69.7
2022-08-17T22:34:13.572Z,69.8
2022-08-17T22:36:18.816Z,69.8
2022-08-17T22:38:27.418Z,69.8
2022-08-17T22:40:24.898Z,70.3
2022-08-17T22:42:13.893Z,70.3
2022-08-17T22:44:18.519Z,70.7
2022-08-17T22:46:12.538Z,70.7
2022-08-17T22:48:17.418Z,70.9
2022-08-17T22:50:21.289Z,70.9
2022-08-17T22:52:29.225Z,70.9
2022-08-17T22:54:17.871Z,70.9
2022-08-17T22:56:17.028Z,70.9
2022-08-17T22:58:17.799Z,70.9
2022-08-17T23:00:31.233Z,70.9
2022-08-17T23:02:22.827Z,71.4
2022-08-17T23:04:32.360Z,71.5
2022-08-17T23:06:15.824Z,71.5
2022-08-17T23:08:16.393Z,71.5
2022-08-17T23:10:16.631Z,71.5
2022-08-17T23:12:24.025Z,71.5
2022-08-17T23:14:19.450Z,72.1
2022-08-17T23:16:18.706Z,72.1
2022-08-17T23:18:18.066Z,72.1
2022-08-17T23:20:18.742Z,72.1
2022-08-17T23:22:18.821Z,72.7
2022-08-17T23:24:22.357Z,72.8
2022-08-17T23:26:21.125Z,72.8
2022-08-17T23:28:19.958Z,72.8
2022-08-17T23:30:20.490Z,73.3
2022-08-17T23:32:21.689Z,73.3
2022-08-17T23:34:21.222Z,73.7
2022-08-17T23:36:21.513Z,73.7
2022-08-17T23:38:21.849Z,73.9
2022-08-17T23:40:22.597Z,73.9
2022-08-17T23:42:22.720Z,73.9
2022-08-17T23:44:23.577Z,74.1
2022-08-17T23:46:23.490Z,74.1
2022-08-17T23:48:32.430Z,74.1
2022-08-17T23:50:24.311Z,74.1
2022-08-17T23:52:24.489Z,74.4
2022-08-17T23:54:30.479Z,74.5
2022-08-17T23:56:25.155Z,74.5
2022-08-17T23:58:25.667Z,74.5
